sensor_id;sensor_type;location;lat;lon;timestamp;temperature;humidity
51253;DHT22;38936;47.808;19.936;2022-09-28T00:01:18;10.30;99.90
51253;DHT22;38936;47.808;19.936;2022-09-28T00:03:45;10.30;99.90
51253;DHT22;38936;47.808;19.936;2022-09-28T00:06:13;10.30;99.90
51253;DHT22;38936;47.808;19.936;2022-09-28T00:08:39;10.30;99.90
51253;DHT22;38936;47.808;19.936;2022-09-28T00:11:06;10.30;99.90
51253;DHT22;38936;47.808;19.936;2022-09-28T00:13:33;10.30;99.90
51253;DHT22;38936;47.808;19.936;2022-09-28T00:16:05;10.30;99.90
51253;DHT22;38936;47.808;19.936;2022-09-28T00:18:32;10.30;99.90
51253;DHT22;38936;47.808;19.936;2022-09-28T00:21:04;10.30;99.90
51253;DHT22;38936;47.808;19.936;2022-09-28T00:23:31;10.30;99.90
51253;DHT22;38936;47.808;19.936;2022-09-28T00:26:03;10.20;99.90
51253;DHT22;38936;47.808;19.936;2022-09-28T00:28:30;10.20;99.90
51253;DHT22;38936;47.808;19.936;2022-09-28T00:30:56;10.20;99.90
51253;DHT22;38936;47.808;19.936;2022-09-28T00:33:22;10.10;99.90
51253;DHT22;38936;47.808;19.936;2022-09-28T00:35:56;10.10;99.90
51253;DHT22;38936;47.808;19.936;2022-09-28T00:38:25;10.00;99.90
51253;DHT22;38936;47.808;19.936;2022-09-28T00:40:51;10.00;99.90
51253;DHT22;38936;47.808;19.936;2022-09-28T00:43:20;10.00;99.90
51253;DHT22;38936;47.808;19.936;2022-09-28T00:46:00;10.00;99.90
51253;DHT22;38936;47.808;19.936;2022-09-28T00:48:29;9.90;99.90
51253;DHT22;38936;47.808;19.936;2022-09-28T00:50:56;9.90;99.90
51253;DHT22;38936;47.808;19.936;2022-09-28T00:53:26;9.90;99.90
51253;DHT22;38936;47.808;19.936;2022-09-28T00:56:01;9.90;99.90
51253;DHT22;38936;47.808;19.936;2022-09-28T00:58:37;9.90;99.90
51253;DHT22;38936;47.808;19.936;2022-09-28T01:01:04;9.80;99.90
51253;DHT22;38936;47.808;19.936;2022-09-28T01:03:31;9.80;99.90
51253;DHT22;38936;47.808;19.936;2022-09-28T01:06:00;9.80;99.90
51253;DHT22;38936;47.808;19.936;2022-09-28T01:08:28;9.70;99.90
51253;DHT22;38936;47.808;19.936;2022-09-28T01:10:57;9.70;99.90
51253;DHT22;38936;47.808;19.936;2022-09-28T01:13:23;9.70;99.90
51253;DHT22;38936;47.808;19.936;2022-09-28T01:15:55;9.70;99.90
51253;DHT22;38936;47.808;19.936;2022-09-28T01:21:27;9.60;99.90
51253;DHT22;38936;47.808;19.936;2022-09-28T01:23:56;9.60;99.90
51253;DHT22;38936;47.808;19.936;2022-09-28T01:31:43;9.50;99.90
51253;DHT22;38936;47.808;19.936;2022-09-28T01:34:16;9.40;99.90
51253;DHT22;38936;47.808;19.936;2022-09-28T01:36:49;9.40;99.90
51253;DHT22;38936;47.808;19.936;2022-09-28T01:39:32;9.30;99.90
51253;DHT22;38936;47.808;19.936;2022-09-28T01:42:03;9.30;99.90
51253;DHT22;38936;47.808;19.936;2022-09-28T01:44:30;9.30;99.90
51253;DHT22;38936;47.808;19.936;2022-09-28T01:46:58;9.30;99.90
51253;DHT22;38936;47.808;19.936;2022-09-28T01:49:36;9.20;99.90
51253;DHT22;38936;47.808;19.936;2022-09-28T01:54:45;9.30;99.90
51253;DHT22;38936;47.808;19.936;2022-09-28T01:57:29;9.30;99.90
51253;DHT22;38936;47.808;19.936;2022-09-28T02:00:04;9.30;99.90
51253;DHT22;38936;47.808;19.936;2022-09-28T02:02:34;9.30;99.90
51253;DHT22;38936;47.808;19.936;2022-09-28T02:05:12;9.20;99.90
51253;DHT22;38936;47.808;19.936;2022-09-28T02:10:44;9.20;99.90
51253;DHT22;38936;47.808;19.936;2022-09-28T02:13:19;9.30;99.90
51253;DHT22;38936;47.808;19.936;2022-09-28T02:16:25;9.30;99.90
51253;DHT22;38936;47.808;19.936;2022-09-28T02:18:55;9.30;99.90
51253;DHT22;38936;47.808;19.936;2022-09-28T02:21:25;9.30;99.90
51253;DHT22;38936;47.808;19.936;2022-09-28T02:23:58;9.30;99.90
51253;DHT22;38936;47.808;19.936;2022-09-28T02:26:30;9.30;99.90
51253;DHT22;38936;47.808;19.936;2022-09-28T02:28:57;9.40;99.90
51253;DHT22;38936;47.808;19.936;2022-09-28T02:31:23;9.40;99.90
51253;DHT22;38936;47.808;19.936;2022-09-28T02:33:48;9.40;99.90
51253;DHT22;38936;47.808;19.936;2022-09-28T02:36:15;9.50;99.90
51253;DHT22;38936;47.808;19.936;2022-09-28T02:38:41;9.40;99.90
51253;DHT22;38936;47.808;19.936;2022-09-28T02:43:33;9.40;99.90
51253;DHT22;38936;47.808;19.936;2022-09-28T02:51:44;9.40;99.90
51253;DHT22;38936;47.808;19.936;2022-09-28T02:54:44;9.40;99.90
51253;DHT22;38936;47.808;19.936;2022-09-28T03:00:21;9.40;99.90
51253;DHT22;38936;47.808;19.936;2022-09-28T03:03:17;9.40;99.90
51253;DHT22;38936;47.808;19.936;2022-09-28T03:12:07;9.40;99.90
51253;DHT22;38936;47.808;19.936;2022-09-28T03:14:34;9.50;99.90
51253;DHT22;38936;47.808;19.936;2022-09-28T03:16:59;9.50;99.90
51253;DHT22;38936;47.808;19.936;2022-09-28T03:19:32;9.40;99.90
51253;DHT22;38936;47.808;19.936;2022-09-28T03:21:58;9.40;99.90
51253;DHT22;38936;47.808;19.936;2022-09-28T03:24:24;9.40;99.90
51253;DHT22;38936;47.808;19.936;2022-09-28T03:26:50;9.50;99.90
51253;DHT22;38936;47.808;19.936;2022-09-28T03:29:15;9.40;99.90
51253;DHT22;38936;47.808;19.936;2022-09-28T03:31:41;9.40;99.90
51253;DHT22;38936;47.808;19.936;2022-09-28T03:34:08;9.30;99.90
51253;DHT22;38936;47.808;19.936;2022-09-28T03:36:33;9.30;99.90
51253;DHT22;38936;47.808;19.936;2022-09-28T03:38:59;9.30;99.90
51253;DHT22;38936;47.808;19.936;2022-09-28T03:41:25;9.40;99.90
51253;DHT22;38936;47.808;19.936;2022-09-28T03:43:54;9.30;99.90
51253;DHT22;38936;47.808;19.936;2022-09-28T03:46:19;9.30;99.90
51253;DHT22;38936;47.808;19.936;2022-09-28T03:48:45;9.30;99.90
51253;DHT22;38936;47.808;19.936;2022-09-28T03:51:11;9.30;99.90
51253;DHT22;38936;47.808;19.936;2022-09-28T03:53:36;9.40;99.90
51253;DHT22;38936;47.808;19.936;2022-09-28T03:56:03;9.30;99.90
51253;DHT22;38936;47.808;19.936;2022-09-28T03:58:29;9.30;99.90
51253;DHT22;38936;47.808;19.936;2022-09-28T04:00:59;9.30;99.90
51253;DHT22;38936;47.808;19.936;2022-09-28T04:03:25;9.30;99.90
51253;DHT22;38936;47.808;19.936;2022-09-28T04:05:51;9.30;99.90
51253;DHT22;38936;47.808;19.936;2022-09-28T04:08:17;9.20;99.90
51253;DHT22;38936;47.808;19.936;2022-09-28T04:10:43;9.20;99.90
51253;DHT22;38936;47.808;19.936;2022-09-28T04:13:08;9.20;99.90
51253;DHT22;38936;47.808;19.936;2022-09-28T04:15:34;9.20;99.90
51253;DHT22;38936;47.808;19.936;2022-09-28T04:18:02;9.10;99.90
51253;DHT22;38936;47.808;19.936;2022-09-28T04:20:28;9.10;99.90
51253;DHT22;38936;47.808;19.936;2022-09-28T04:22:53;9.00;99.90
51253;DHT22;38936;47.808;19.936;2022-09-28T04:25:19;8.90;99.90
51253;DHT22;38936;47.808;19.936;2022-09-28T04:27:45;8.90;99.90
51253;DHT22;38936;47.808;19.936;2022-09-28T04:30:29;8.90;99.90
51253;DHT22;38936;47.808;19.936;2022-09-28T04:32:55;8.90;99.90
51253;DHT22;38936;47.808;19.936;2022-09-28T04:35:20;8.80;99.90
51253;DHT22;38936;47.808;19.936;2022-09-28T04:37:46;8.70;99.90
51253;DHT22;38936;47.808;19.936;2022-09-28T04:40:11;8.70;99.90
51253;DHT22;38936;47.808;19.936;2022-09-28T04:42:37;8.70;99.90
51253;DHT22;38936;47.808;19.936;2022-09-28T04:45:03;8.70;99.90
51253;DHT22;38936;47.808;19.936;2022-09-28T04:47:29;8.70;99.90
51253;DHT22;38936;47.808;19.936;2022-09-28T04:49:55;8.70;99.90
51253;DHT22;38936;47.808;19.936;2022-09-28T04:52:20;8.70;99.90
51253;DHT22;38936;47.808;19.936;2022-09-28T04:54:46;8.80;99.90
51253;DHT22;38936;47.808;19.936;2022-09-28T04:57:12;8.80;99.90
51253;DHT22;38936;47.808;19.936;2022-09-28T04:59:37;8.90;99.90
51253;DHT22;38936;47.808;19.936;2022-09-28T05:02:03;8.90;99.90
51253;DHT22;38936;47.808;19.936;2022-09-28T05:04:29;9.00;99.90
51253;DHT22;38936;47.808;19.936;2022-09-28T05:06:56;9.00;99.90
51253;DHT22;38936;47.808;19.936;2022-09-28T05:09:21;9.00;99.90
51253;DHT22;38936;47.808;19.936;2022-09-28T05:11:50;9.10;99.90
51253;DHT22;38936;47.808;19.936;2022-09-28T05:14:20;9.20;99.90
51253;DHT22;38936;47.808;19.936;2022-09-28T05:16:47;9.20;99.90
51253;DHT22;38936;47.808;19.936;2022-09-28T05:19:12;9.30;99.90
51253;DHT22;38936;47.808;19.936;2022-09-28T05:21:38;9.40;99.90
51253;DHT22;38936;47.808;19.936;2022-09-28T05:24:04;9.50;99.90
51253;DHT22;38936;47.808;19.936;2022-09-28T05:26:32;9.60;99.90
51253;DHT22;38936;47.808;19.936;2022-09-28T05:28:58;9.70;99.90
51253;DHT22;38936;47.808;19.936;2022-09-28T05:31:23;9.80;99.90
51253;DHT22;38936;47.808;19.936;2022-09-28T05:33:51;9.90;99.90
51253;DHT22;38936;47.808;19.936;2022-09-28T05:36:17;10.00;99.90
51253;DHT22;38936;47.808;19.936;2022-09-28T05:38:44;10.10;99.90
51253;DHT22;38936;47.808;19.936;2022-09-28T05:41:09;10.10;99.90
51253;DHT22;38936;47.808;19.936;2022-09-28T05:43:35;10.20;99.90
51253;DHT22;38936;47.808;19.936;2022-09-28T05:46:03;10.10;99.90
51253;DHT22;38936;47.808;19.936;2022-09-28T05:48:29;10.20;99.90
51253;DHT22;38936;47.808;19.936;2022-09-28T05:50:55;10.20;99.90
51253;DHT22;38936;47.808;19.936;2022-09-28T05:53:21;10.30;99.90
51253;DHT22;38936;47.808;19.936;2022-09-28T05:55:46;10.40;99.90
51253;DHT22;38936;47.808;19.936;2022-09-28T05:58:12;10.50;99.90
51253;DHT22;38936;47.808;19.936;2022-09-28T06:00:38;10.60;99.90
51253;DHT22;38936;47.808;19.936;2022-09-28T06:03:07;10.70;99.90
51253;DHT22;38936;47.808;19.936;2022-09-28T06:05:34;10.70;99.90
51253;DHT22;38936;47.808;19.936;2022-09-28T06:08:00;10.90;99.90
51253;DHT22;38936;47.808;19.936;2022-09-28T06:10:28;11.00;99.90
51253;DHT22;38936;47.808;19.936;2022-09-28T06:12:54;11.10;99.90
51253;DHT22;38936;47.808;19.936;2022-09-28T06:15:22;11.40;99.90
51253;DHT22;38936;47.808;19.936;2022-09-28T06:17:57;11.70;99.90
51253;DHT22;38936;47.808;19.936;2022-09-28T06:20:25;12.30;99.90
51253;DHT22;38936;47.808;19.936;2022-09-28T06:22:52;13.00;99.90
51253;DHT22;38936;47.808;19.936;2022-09-28T06:25:18;13.70;99.90
51253;DHT22;38936;47.808;19.936;2022-09-28T06:27:53;14.50;99.90
51253;DHT22;38936;47.808;19.936;2022-09-28T06:30:18;15.40;99.90
51253;DHT22;38936;47.808;19.936;2022-09-28T06:32:44;16.10;99.90
51253;DHT22;38936;47.808;19.936;2022-09-28T06:35:10;16.80;99.90
51253;DHT22;38936;47.808;19.936;2022-09-28T06:37:35;17.30;99.90
51253;DHT22;38936;47.808;19.936;2022-09-28T06:40:01;18.00;99.90
51253;DHT22;38936;47.808;19.936;2022-09-28T06:42:26;18.60;99.90
51253;DHT22;38936;47.808;19.936;2022-09-28T06:44:52;18.90;99.90
51253;DHT22;38936;47.808;19.936;2022-09-28T06:47:18;19.30;99.00
51253;DHT22;38936;47.808;19.936;2022-09-28T06:49:43;19.90;98.50
51253;DHT22;38936;47.808;19.936;2022-09-28T06:52:10;20.30;96.60
51253;DHT22;38936;47.808;19.936;2022-09-28T06:54:36;20.70;96.00
51253;DHT22;38936;47.808;19.936;2022-09-28T06:57:02;21.00;94.60
51253;DHT22;38936;47.808;19.936;2022-09-28T06:59:27;21.40;93.00
51253;DHT22;38936;47.808;19.936;2022-09-28T07:01:54;21.30;91.90
51253;DHT22;38936;47.808;19.936;2022-09-28T07:04:19;21.70;91.30
51253;DHT22;38936;47.808;19.936;2022-09-28T07:06:46;21.60;90.90
51253;DHT22;38936;47.808;19.936;2022-09-28T07:09:12;21.80;88.70
51253;DHT22;38936;47.808;19.936;2022-09-28T07:11:38;21.70;86.20
51253;DHT22;38936;47.808;19.936;2022-09-28T07:14:05;21.60;88.00
51253;DHT22;38936;47.808;19.936;2022-09-28T07:16:30;21.40;87.40
51253;DHT22;38936;47.808;19.936;2022-09-28T07:18:56;21.10;87.30
51253;DHT22;38936;47.808;19.936;2022-09-28T07:21:22;21.00;87.90
51253;DHT22;38936;47.808;19.936;2022-09-28T07:23:47;20.90;87.40
51253;DHT22;38936;47.808;19.936;2022-09-28T07:26:13;20.80;88.70
51253;DHT22;38936;47.808;19.936;2022-09-28T07:28:40;20.80;89.10
51253;DHT22;38936;47.808;19.936;2022-09-28T07:31:07;20.70;87.50
51253;DHT22;38936;47.808;19.936;2022-09-28T07:33:33;20.50;88.30
51253;DHT22;38936;47.808;19.936;2022-09-28T07:35:59;20.20;89.10
51253;DHT22;38936;47.808;19.936;2022-09-28T07:38:27;20.30;90.30
51253;DHT22;38936;47.808;19.936;2022-09-28T07:40:55;20.50;90.40
51253;DHT22;38936;47.808;19.936;2022-09-28T07:43:36;20.60;88.90
51253;DHT22;38936;47.808;19.936;2022-09-28T07:46:04;20.60;89.40
51253;DHT22;38936;47.808;19.936;2022-09-28T07:48:40;20.00;89.60
51253;DHT22;38936;47.808;19.936;2022-09-28T07:51:07;19.60;90.70
51253;DHT22;38936;47.808;19.936;2022-09-28T07:53:33;19.30;91.80
51253;DHT22;38936;47.808;19.936;2022-09-28T07:56:00;19.10;93.50
51253;DHT22;38936;47.808;19.936;2022-09-28T07:58:28;18.90;93.90
51253;DHT22;38936;47.808;19.936;2022-09-28T08:00:57;18.80;93.80
51253;DHT22;38936;47.808;19.936;2022-09-28T08:03:25;19.00;93.70
51253;DHT22;38936;47.808;19.936;2022-09-28T08:05:59;19.40;92.40
51253;DHT22;38936;47.808;19.936;2022-09-28T08:08:26;19.90;91.70
51253;DHT22;38936;47.808;19.936;2022-09-28T08:10:51;19.90;91.10
51253;DHT22;38936;47.808;19.936;2022-09-28T08:13:18;20.00;91.80
51253;DHT22;38936;47.808;19.936;2022-09-28T08:15:44;20.40;91.20
51253;DHT22;38936;47.808;19.936;2022-09-28T08:18:15;20.90;90.60
51253;DHT22;38936;47.808;19.936;2022-09-28T08:20:41;21.40;90.20
51253;DHT22;38936;47.808;19.936;2022-09-28T08:23:25;21.90;89.00
51253;DHT22;38936;47.808;19.936;2022-09-28T08:25:51;22.40;86.10
51253;DHT22;38936;47.808;19.936;2022-09-28T08:28:19;22.80;84.40
51253;DHT22;38936;47.808;19.936;2022-09-28T08:30:47;23.10;82.70
51253;DHT22;38936;47.808;19.936;2022-09-28T08:33:13;23.40;81.00
51253;DHT22;38936;47.808;19.936;2022-09-28T08:35:39;23.50;79.80
51253;DHT22;38936;47.808;19.936;2022-09-28T08:38:07;23.70;75.40
51253;DHT22;38936;47.808;19.936;2022-09-28T08:40:41;23.90;74.50
51253;DHT22;38936;47.808;19.936;2022-09-28T08:46:14;24.00;71.00
51253;DHT22;38936;47.808;19.936;2022-09-28T08:48:56;23.90;72.60
51253;DHT22;38936;47.808;19.936;2022-09-28T08:51:34;23.90;73.30
51253;DHT22;38936;47.808;19.936;2022-09-28T08:54:16;24.30;72.00
51253;DHT22;38936;47.808;19.936;2022-09-28T08:56:51;24.50;72.70
51253;DHT22;38936;47.808;19.936;2022-09-28T08:59:25;24.70;71.60
51253;DHT22;38936;47.808;19.936;2022-09-28T09:02:00;24.80;70.80
51253;DHT22;38936;47.808;19.936;2022-09-28T09:04:28;24.90;68.70
51253;DHT22;38936;47.808;19.936;2022-09-28T09:15:23;25.20;65.60
51253;DHT22;38936;47.808;19.936;2022-09-28T09:18:16;25.30;68.60
51253;DHT22;38936;47.808;19.936;2022-09-28T09:20:56;25.60;66.90
51253;DHT22;38936;47.808;19.936;2022-09-28T09:26:17;26.10;63.00
51253;DHT22;38936;47.808;19.936;2022-09-28T09:37:07;25.90;65.30
51253;DHT22;38936;47.808;19.936;2022-09-28T09:46:11;26.10;62.40
51253;DHT22;38936;47.808;19.936;2022-09-28T09:48:46;26.20;59.80
51253;DHT22;38936;47.808;19.936;2022-09-28T09:54:41;26.00;61.30
51253;DHT22;38936;47.808;19.936;2022-09-28T09:57:40;26.20;60.20
51253;DHT22;38936;47.808;19.936;2022-09-28T10:00:09;26.20;60.20
51253;DHT22;38936;47.808;19.936;2022-09-28T10:02:38;25.90;61.80
51253;DHT22;38936;47.808;19.936;2022-09-28T10:08:03;25.70;61.00
51253;DHT22;38936;47.808;19.936;2022-09-28T10:10:36;25.10;61.40
51253;DHT22;38936;47.808;19.936;2022-09-28T10:13:03;24.90;63.10
51253;DHT22;38936;47.808;19.936;2022-09-28T10:15:33;25.20;62.90
51253;DHT22;38936;47.808;19.936;2022-09-28T10:18:05;25.40;62.50
51253;DHT22;38936;47.808;19.936;2022-09-28T10:20:37;25.40;60.40
51253;DHT22;38936;47.808;19.936;2022-09-28T10:23:05;25.20;61.30
51253;DHT22;38936;47.808;19.936;2022-09-28T10:25:36;24.60;62.70
51253;DHT22;38936;47.808;19.936;2022-09-28T10:28:04;23.80;64.60
51253;DHT22;38936;47.808;19.936;2022-09-28T10:30:34;23.10;65.20
51253;DHT22;38936;47.808;19.936;2022-09-28T10:33:28;22.50;66.90
51253;DHT22;38936;47.808;19.936;2022-09-28T10:35:54;21.90;68.60
51253;DHT22;38936;47.808;19.936;2022-09-28T10:38:20;21.50;68.80
51253;DHT22;38936;47.808;19.936;2022-09-28T10:41:10;21.00;70.00
51253;DHT22;38936;47.808;19.936;2022-09-28T10:43:51;20.50;72.50
51253;DHT22;38936;47.808;19.936;2022-09-28T10:46:31;20.30;74.60
51253;DHT22;38936;47.808;19.936;2022-09-28T10:49:21;20.00;73.10
51253;DHT22;38936;47.808;19.936;2022-09-28T10:51:48;19.80;72.70
51253;DHT22;38936;47.808;19.936;2022-09-28T10:54:18;19.40;73.70
51253;DHT22;38936;47.808;19.936;2022-09-28T10:56:45;19.30;76.30
51253;DHT22;38936;47.808;19.936;2022-09-28T11:02:11;18.70;79.80
51253;DHT22;38936;47.808;19.936;2022-09-28T11:04:41;18.60;82.00
51253;DHT22;38936;47.808;19.936;2022-09-28T11:07:23;18.70;80.80
51253;DHT22;38936;47.808;19.936;2022-09-28T11:09:51;19.00;81.40
51253;DHT22;38936;47.808;19.936;2022-09-28T11:12:21;19.30;80.70
51253;DHT22;38936;47.808;19.936;2022-09-28T11:14:54;19.40;82.30
51253;DHT22;38936;47.808;19.936;2022-09-28T11:17:35;19.50;80.70
51253;DHT22;38936;47.808;19.936;2022-09-28T11:33:27;19.40;84.50
51253;DHT22;38936;47.808;19.936;2022-09-28T11:44:38;18.80;86.90
51253;DHT22;38936;47.808;19.936;2022-09-28T11:52:59;19.20;88.90
51253;DHT22;38936;47.808;19.936;2022-09-28T11:55:32;19.40;87.40
51253;DHT22;38936;47.808;19.936;2022-09-28T11:58:08;19.40;87.30
51253;DHT22;38936;47.808;19.936;2022-09-28T12:00:36;19.50;87.50
51253;DHT22;38936;47.808;19.936;2022-09-28T12:03:15;19.50;87.70
51253;DHT22;38936;47.808;19.936;2022-09-28T12:05:58;19.60;88.40
51253;DHT22;38936;47.808;19.936;2022-09-28T12:08:35;19.70;88.40
51253;DHT22;38936;47.808;19.936;2022-09-28T12:13:40;19.60;87.60
51253;DHT22;38936;47.808;19.936;2022-09-28T12:16:43;19.40;87.50
51253;DHT22;38936;47.808;19.936;2022-09-28T12:19:31;19.20;88.50
51253;DHT22;38936;47.808;19.936;2022-09-28T12:22:11;19.20;88.80
51253;DHT22;38936;47.808;19.936;2022-09-28T12:24:43;19.20;87.10
51253;DHT22;38936;47.808;19.936;2022-09-28T12:27:11;19.20;85.30
51253;DHT22;38936;47.808;19.936;2022-09-28T12:29:44;19.20;84.80
51253;DHT22;38936;47.808;19.936;2022-09-28T12:34:52;19.20;86.80
51253;DHT22;38936;47.808;19.936;2022-09-28T12:37:37;19.40;85.80
51253;DHT22;38936;47.808;19.936;2022-09-28T12:42:58;19.40;86.40
51253;DHT22;38936;47.808;19.936;2022-09-28T12:45:42;19.30;87.50
51253;DHT22;38936;47.808;19.936;2022-09-28T12:56:03;19.40;84.60
51253;DHT22;38936;47.808;19.936;2022-09-28T13:04:26;19.40;84.10
51253;DHT22;38936;47.808;19.936;2022-09-28T13:09:36;19.20;84.60
51253;DHT22;38936;47.808;19.936;2022-09-28T13:20:36;19.00;86.30
51253;DHT22;38936;47.808;19.936;2022-09-28T13:23:21;18.90;86.10
51253;DHT22;38936;47.808;19.936;2022-09-28T13:25:56;18.70;86.70
51253;DHT22;38936;47.808;19.936;2022-09-28T13:28:24;18.60;87.80
51253;DHT22;38936;47.808;19.936;2022-09-28T13:30:52;18.60;87.20
51253;DHT22;38936;47.808;19.936;2022-09-28T13:33:28;18.70;88.90
51253;DHT22;38936;47.808;19.936;2022-09-28T13:35:55;18.90;87.20
51253;DHT22;38936;47.808;19.936;2022-09-28T13:43:45;18.90;85.80
51253;DHT22;38936;47.808;19.936;2022-09-28T13:49:08;18.70;87.30
51253;DHT22;38936;47.808;19.936;2022-09-28T13:52:02;18.70;87.50
51253;DHT22;38936;47.808;19.936;2022-09-28T14:00:18;18.40;86.30
51253;DHT22;38936;47.808;19.936;2022-09-28T14:02:53;18.40;87.30
51253;DHT22;38936;47.808;19.936;2022-09-28T14:10:49;18.10;88.70
51253;DHT22;38936;47.808;19.936;2022-09-28T14:16:24;17.90;90.10
51253;DHT22;38936;47.808;19.936;2022-09-28T14:19:13;17.70;89.40
51253;DHT22;38936;47.808;19.936;2022-09-28T14:30:23;17.70;90.30
51253;DHT22;38936;47.808;19.936;2022-09-28T14:32:57;17.70;90.40
51253;DHT22;38936;47.808;19.936;2022-09-28T14:35:38;17.70;90.80
51253;DHT22;38936;47.808;19.936;2022-09-28T14:38:16;17.60;90.90
51253;DHT22;38936;47.808;19.936;2022-09-28T14:41:04;17.50;90.90
51253;DHT22;38936;47.808;19.936;2022-09-28T14:48:49;17.10;92.20
51253;DHT22;38936;47.808;19.936;2022-09-28T14:53:57;17.20;92.80
51253;DHT22;38936;47.808;19.936;2022-09-28T14:56:27;17.20;92.80
51253;DHT22;38936;47.808;19.936;2022-09-28T14:58:56;17.20;93.10
51253;DHT22;38936;47.808;19.936;2022-09-28T15:01:23;17.10;93.60
51253;DHT22;38936;47.808;19.936;2022-09-28T15:03:54;17.10;93.60
51253;DHT22;38936;47.808;19.936;2022-09-28T15:06:22;17.00;94.00
51253;DHT22;38936;47.808;19.936;2022-09-28T15:08:48;16.80;94.50
51253;DHT22;38936;47.808;19.936;2022-09-28T15:11:18;16.80;95.40
51253;DHT22;38936;47.808;19.936;2022-09-28T15:13:45;16.80;95.70
51253;DHT22;38936;47.808;19.936;2022-09-28T15:16:17;16.80;96.00
51253;DHT22;38936;47.808;19.936;2022-09-28T15:21:12;16.90;96.80
51253;DHT22;38936;47.808;19.936;2022-09-28T15:23:40;16.90;96.80
51253;DHT22;38936;47.808;19.936;2022-09-28T15:26:23;16.90;95.80
51253;DHT22;38936;47.808;19.936;2022-09-28T15:28:52;16.90;95.10
51253;DHT22;38936;47.808;19.936;2022-09-28T15:31:20;16.80;94.60
51253;DHT22;38936;47.808;19.936;2022-09-28T15:33:47;16.70;94.60
51253;DHT22;38936;47.808;19.936;2022-09-28T15:36:36;16.60;95.30
51253;DHT22;38936;47.808;19.936;2022-09-28T15:39:03;16.40;95.30
51253;DHT22;38936;47.808;19.936;2022-09-28T15:41:30;16.30;95.60
51253;DHT22;38936;47.808;19.936;2022-09-28T15:44:19;16.20;95.80
51253;DHT22;38936;47.808;19.936;2022-09-28T15:46:49;16.10;96.60
51253;DHT22;38936;47.808;19.936;2022-09-28T15:52:01;16.00;97.30
51253;DHT22;38936;47.808;19.936;2022-09-28T15:54:37;16.00;97.70
51253;DHT22;38936;47.808;19.936;2022-09-28T15:57:28;16.10;98.20
51253;DHT22;38936;47.808;19.936;2022-09-28T15:59:54;16.10;98.20
51253;DHT22;38936;47.808;19.936;2022-09-28T16:02:21;16.00;98.80
51253;DHT22;38936;47.808;19.936;2022-09-28T16:04:54;16.00;99.10
51253;DHT22;38936;47.808;19.936;2022-09-28T16:07:39;15.90;99.80
51253;DHT22;38936;47.808;19.936;2022-09-28T16:12:44;15.70;99.90
51253;DHT22;38936;47.808;19.936;2022-09-28T16:15:31;15.60;99.90
51253;DHT22;38936;47.808;19.936;2022-09-28T16:20:43;15.40;99.90
51253;DHT22;38936;47.808;19.936;2022-09-28T16:26:01;15.20;99.90
51253;DHT22;38936;47.808;19.936;2022-09-28T16:31:23;15.00;99.90
51253;DHT22;38936;47.808;19.936;2022-09-28T16:36:19;14.90;99.90
51253;DHT22;38936;47.808;19.936;2022-09-28T16:38:47;14.80;99.90
51253;DHT22;38936;47.808;19.936;2022-09-28T16:41:15;14.80;99.90
51253;DHT22;38936;47.808;19.936;2022-09-28T16:43:44;14.70;99.90
51253;DHT22;38936;47.808;19.936;2022-09-28T16:46:12;14.70;99.90
51253;DHT22;38936;47.808;19.936;2022-09-28T16:48:47;14.60;99.90
51253;DHT22;38936;47.808;19.936;2022-09-28T16:51:18;14.60;99.90
51253;DHT22;38936;47.808;19.936;2022-09-28T16:53:44;14.60;99.90
51253;DHT22;38936;47.808;19.936;2022-09-28T16:56:29;14.50;99.90
51253;DHT22;38936;47.808;19.936;2022-09-28T16:58:55;14.50;99.90
51253;DHT22;38936;47.808;19.936;2022-09-28T17:01:21;14.50;99.90
51253;DHT22;38936;47.808;19.936;2022-09-28T17:03:48;14.40;99.90
51253;DHT22;38936;47.808;19.936;2022-09-28T17:06:19;14.40;99.90
51253;DHT22;38936;47.808;19.936;2022-09-28T17:08:45;14.50;99.90
51253;DHT22;38936;47.808;19.936;2022-09-28T17:11:12;14.50;99.90
51253;DHT22;38936;47.808;19.936;2022-09-28T17:13:38;14.50;99.90
51253;DHT22;38936;47.808;19.936;2022-09-28T17:16:16;14.50;99.90
51253;DHT22;38936;47.808;19.936;2022-09-28T17:18:43;14.50;99.90
51253;DHT22;38936;47.808;19.936;2022-09-28T17:21:12;14.50;99.90
51253;DHT22;38936;47.808;19.936;2022-09-28T17:23:40;14.50;99.90
51253;DHT22;38936;47.808;19.936;2022-09-28T17:26:06;14.50;99.90
51253;DHT22;38936;47.808;19.936;2022-09-28T17:28:34;14.50;99.90
51253;DHT22;38936;47.808;19.936;2022-09-28T17:31:00;14.60;99.90
51253;DHT22;38936;47.808;19.936;2022-09-28T17:33:26;14.50;99.90
51253;DHT22;38936;47.808;19.936;2022-09-28T17:35:58;14.60;99.90
51253;DHT22;38936;47.808;19.936;2022-09-28T17:38:24;14.60;99.90
51253;DHT22;38936;47.808;19.936;2022-09-28T17:40:50;14.70;99.90
51253;DHT22;38936;47.808;19.936;2022-09-28T17:43:15;14.70;99.90
51253;DHT22;38936;47.808;19.936;2022-09-28T17:45:41;14.80;99.90
51253;DHT22;38936;47.808;19.936;2022-09-28T17:48:14;14.80;99.90
51253;DHT22;38936;47.808;19.936;2022-09-28T17:50:40;14.80;99.90
51253;DHT22;38936;47.808;19.936;2022-09-28T17:53:07;14.80;99.90
51253;DHT22;38936;47.808;19.936;2022-09-28T17:55:35;14.80;99.90
51253;DHT22;38936;47.808;19.936;2022-09-28T17:58:22;14.80;99.90
51253;DHT22;38936;47.808;19.936;2022-09-28T18:00:49;14.80;99.90
51253;DHT22;38936;47.808;19.936;2022-09-28T18:03:18;14.80;99.90
51253;DHT22;38936;47.808;19.936;2022-09-28T18:05:46;14.90;99.90
51253;DHT22;38936;47.808;19.936;2022-09-28T18:08:17;15.00;99.90
51253;DHT22;38936;47.808;19.936;2022-09-28T18:10:42;14.90;99.90
51253;DHT22;38936;47.808;19.936;2022-09-28T18:13:11;15.00;99.90
51253;DHT22;38936;47.808;19.936;2022-09-28T18:15:37;14.90;99.90
51253;DHT22;38936;47.808;19.936;2022-09-28T18:18:02;14.90;99.90
51253;DHT22;38936;47.808;19.936;2022-09-28T18:20:28;14.90;99.90
51253;DHT22;38936;47.808;19.936;2022-09-28T18:22:55;14.80;99.90
51253;DHT22;38936;47.808;19.936;2022-09-28T18:25:21;14.70;99.90
51253;DHT22;38936;47.808;19.936;2022-09-28T18:27:46;14.70;99.90
51253;DHT22;38936;47.808;19.936;2022-09-28T18:30:12;14.60;99.90
51253;DHT22;38936;47.808;19.936;2022-09-28T18:32:37;14.50;99.90
51253;DHT22;38936;47.808;19.936;2022-09-28T18:35:04;14.40;99.90
51253;DHT22;38936;47.808;19.936;2022-09-28T18:37:35;14.40;99.90
51253;DHT22;38936;47.808;19.936;2022-09-28T18:40:01;14.30;99.90
51253;DHT22;38936;47.808;19.936;2022-09-28T18:42:26;14.20;99.90
51253;DHT22;38936;47.808;19.936;2022-09-28T18:44:52;14.20;99.90
51253;DHT22;38936;47.808;19.936;2022-09-28T18:47:18;14.10;99.90